Time;durP1;ratioP1;P1;durP2;ratioP2;P2;SDS_P1;SDS_P2;PMS_P1;PMS_P2;Temp;Humidity;BMP_temperature;BMP_pressure;BME280_temperature;BME280_humidity;BME280_pressure;Samples;Min_cycle;Max_cycle;Signal;HPM_P1;HPM_P2
2022/08/19 00:00:23;;;;;;;20.85;12.95;;;;;;;14.12;100.00;101251.66;2039748;29;22322;-67
2022/08/19 00:01:29;;;;;;;20.40;13.40;;;;;;;14.16;100.00;101246.13;2039112;29;24755;-67
2022/08/19 00:02:31;;;;;;;20.05;12.95;;;;;;;14.14;100.00;101240.84;2055204;28;27202;-67
2022/08/19 00:03:33;;;;;;;18.55;13.30;;;;;;;14.08;100.00;101239.19;2053546;28;31842;-67
2022/08/19 00:04:36;;;;;;;20.10;13.00;;;;;;;14.12;100.00;101245.34;2039014;29;39549;-67
2022/08/19 00:05:38;;;;;;;18.90;13.13;;;;;;;14.08;100.00;101239.19;2039126;29;35941;-67
2022/08/19 00:06:43;;;;;;;15.93;11.07;;;;;;;14.07;100.00;101242.84;2039403;29;23484;-67
2022/08/19 00:07:45;;;;;;;14.88;11.48;;;;;;;14.05;100.00;101247.41;2038722;29;33764;-67
2022/08/19 00:08:47;;;;;;;19.33;12.13;;;;;;;14.03;100.00;101246.56;2039859;29;22925;-67
2022/08/19 00:09:48;;;;;;;16.67;11.02;;;;;;;14.01;100.00;101245.72;2039054;29;31203;-67
2022/08/19 00:10:50;;;;;;;16.92;11.88;;;;;;;14.01;100.00;101247.53;2039657;29;34026;-67
2022/08/19 00:11:55;;;;;;;14.93;11.18;;;;;;;14.00;100.00;101246.66;2039258;28;28626;-65
2022/08/19 00:12:56;;;;;;;14.93;10.90;;;;;;;13.97;100.00;101246.75;2039280;29;33963;-67
2022/08/19 00:13:58;;;;;;;17.15;12.73;;;;;;;13.98;100.00;101253.00;2039322;29;20818;-66
2022/08/19 00:15:00;;;;;;;13.50;10.77;;;;;;;13.96;100.00;101244.97;2039544;29;30769;-67
2022/08/19 00:16:03;;;;;;;18.17;12.80;;;;;;;13.92;100.00;101249.56;2039146;29;35354;-66
2022/08/19 00:17:10;;;;;;;18.50;12.07;;;;;;;13.92;100.00;101249.56;2039528;29;30264;-66
2022/08/19 00:18:11;;;;;;;15.77;11.35;;;;;;;13.91;100.00;101241.56;2039489;29;26245;-67
2022/08/19 00:19:16;;;;;;;15.73;11.48;;;;;;;13.90;100.00;101242.50;2039749;28;20044;-68
2022/08/19 00:20:21;;;;;;;19.27;12.77;;;;;;;13.85;100.00;101242.63;2038815;29;21972;-66
2022/08/19 00:21:26;;;;;;;13.85;9.80;;;;;;;13.84;100.00;101240.88;2039385;29;26977;-67
2022/08/19 00:22:28;;;;;;;20.90;13.52;;;;;;;13.82;100.00;101239.16;2054312;28;24288;-66
2022/08/19 00:23:29;;;;;;;17.42;12.05;;;;;;;13.83;100.00;101240.94;2053663;28;25275;-68
2022/08/19 00:24:32;;;;;;;21.30;12.95;;;;;;;13.83;100.00;101238.25;2039385;29;23620;-68
2022/08/19 00:25:36;;;;;;;29.20;13.95;;;;;;;13.88;100.00;101239.84;2039830;28;29159;-68
2022/08/19 00:26:38;;;;;;;21.45;13.45;;;;;;;13.87;100.00;101245.28;2038667;29;35750;-69
2022/08/19 00:27:43;;;;;;;21.50;13.00;;;;;;;13.85;100.00;101234.56;2039584;28;20867;-68
2022/08/19 00:28:44;;;;;;;18.90;11.75;;;;;;;13.83;100.00;101227.47;2038597;29;29241;-69
2022/08/19 00:29:46;;;;;;;23.38;13.70;;;;;;;13.85;100.00;101233.69;2039565;29;27851;-68
2022/08/19 00:30:53;;;;;;;19.45;12.82;;;;;;;13.83;100.00;101224.78;2039681;28;20047;-68
2022/08/19 00:31:56;;;;;;;19.40;12.05;;;;;;;13.83;100.00;101227.47;2039309;29;28210;-67
2022/08/19 00:32:58;;;;;;;15.40;10.77;;;;;;;13.84;100.00;101231.94;2039232;28;24423;-67
2022/08/19 00:34:05;;;;;;;18.38;11.93;;;;;;;13.81;100.00;101232.03;2039210;29;30065;-67
2022/08/19 00:35:09;;;;;;;15.65;11.77;;;;;;;13.77;100.00;101238.44;2038926;29;27709;-67
2022/08/19 00:36:11;;;;;;;18.70;12.40;;;;;;;13.73;100.00;101233.16;2039965;29;20134;-65
2022/08/19 00:37:15;;;;;;;21.95;14.38;;;;;;;13.73;100.00;101240.34;2039202;29;26997;-67
2022/08/19 00:38:17;;;;;;;17.75;12.60;;;;;;;13.73;100.00;101234.97;2039658;29;23213;-66
2022/08/19 00:39:19;;;;;;;17.48;12.27;;;;;;;13.69;100.00;101242.25;2039966;29;20087;-67
2022/08/19 00:40:21;;;;;;;16.90;12.13;;;;;;;13.67;100.00;101240.53;2039365;29;32002;-67
2022/08/19 00:41:24;;;;;;;16.02;12.38;;;;;;;13.63;100.00;101245.13;2038938;29;29281;-67
2022/08/19 00:42:28;;;;;;;19.33;12.02;;;;;;;13.59;100.00;101240.78;2054634;28;30623;-67
2022/08/19 00:43:30;;;;;;;16.25;12.02;;;;;;;13.56;100.00;101239.03;2052944;28;20897;-67
2022/08/19 00:44:32;;;;;;;18.02;10.70;;;;;;;13.54;100.00;101248.09;2039486;29;24255;-67
2022/08/19 00:45:35;;;;;;;16.00;11.88;;;;;;;13.48;100.00;101238.41;2039223;29;28477;-66
2022/08/19 00:46:42;;;;;;;14.63;10.90;;;;;;;13.48;100.00;101240.22;2039428;28;28626;-67
2022/08/19 00:47:45;;;;;;;12.02;9.93;;;;;;;13.48;100.00;101240.22;2039426;28;21028;-67
2022/08/19 00:48:47;;;;;;;16.83;12.30;;;;;;;13.45;100.00;101241.19;2055347;28;22755;-67
2022/08/19 00:49:55;;;;;;;17.95;11.85;;;;;;;13.46;100.00;101239.34;2053120;28;22575;-67
2022/08/19 00:50:57;;;;;;;19.90;11.68;;;;;;;13.44;100.00;101239.44;2054768;28;30409;-67
2022/08/19 00:52:12;;;;;;;14.18;10.30;;;;;;;13.46;100.00;101233.97;2052290;28;24490;-67
2022/08/19 00:53:21;;;;;;;21.05;12.55;;;;;;;13.41;100.00;101242.22;2054526;28;32553;-67
2022/08/19 00:54:24;;;;;;;18.73;12.13;;;;;;;13.39;100.00;101240.47;2052283;28;24181;-67
2022/08/19 00:55:29;;;;;;;17.75;12.65;;;;;;;13.36;100.00;101241.47;2046059;28;31183;-69
2022/08/19 00:56:32;;;;;;;16.48;10.57;;;;;;;13.35;100.00;101243.28;2040744;29;20044;-67
2022/08/19 00:57:40;;;;;;;18.92;12.70;;;;;;;13.31;100.00;101238.88;2055718;28;30222;-67
2022/08/19 00:58:41;;;;;;;22.83;13.48;;;;;;;13.33;100.00;101241.53;2055005;28;27308;-67
2022/08/19 00:59:47;;;;;;;19.38;11.88;;;;;;;13.32;100.00;101243.34;2047309;28;34608;-69
2022/08/19 01:00:55;;;;;;;15.82;10.57;;;;;;;13.32;100.00;101245.19;2046280;28;31884;-67
2022/08/19 01:01:57;;;;;;;20.55;12.32;;;;;;;13.30;100.00;101244.31;2040790;29;20817;-69
2022/08/19 01:02:59;;;;;;;21.55;13.25;;;;;;;13.31;100.00;101238.88;2040786;29;24762;-69
2022/08/19 01:04:01;;;;;;;25.45;14.63;;;;;;;13.32;100.00;101232.59;2056289;28;20165;-69
2022/08/19 01:05:10;;;;;;;19.00;12.00;;;;;;;13.34;100.00;101241.50;2054704;28;37549;-69
2022/08/19 01:06:12;;;;;;;20.98;13.55;;;;;;;13.34;100.00;101240.63;2055978;28;26121;-69
2022/08/19 01:07:14;;;;;;;18.42;12.55;;;;;;;13.36;100.00;101241.47;2054215;28;31624;-69
2022/08/19 01:08:19;;;;;;;19.50;12.95;;;;;;;13.34;100.00;101241.50;2040165;28;26551;-69
2022/08/19 01:09:21;;;;;;;20.25;12.48;;;;;;;13.33;100.00;101239.75;2055497;28;29908;-69
2022/08/19 01:10:31;;;;;;;16.00;11.55;;;;;;;13.32;100.00;101242.47;2055225;28;20923;-69
2022/08/19 01:11:42;;;;;;;18.50;12.10;;;;;;;13.26;100.00;101253.38;2056187;28;26655;-68
2022/08/19 01:12:46;;;;;;;20.25;12.10;;;;;;;13.27;100.00;101239.00;2052446;28;26105;-69
2022/08/19 01:13:52;;;;;;;19.45;11.75;;;;;;;13.25;100.00;101252.50;2056014;28;20043;-69
2022/08/19 01:14:55;;;;;;;19.08;12.73;;;;;;;13.27;100.00;101244.38;2053287;28;40885;-69
2022/08/19 01:16:11;;;;;;;23.27;12.88;;;;;;;13.24;100.00;101249.84;2040521;29;31593;-69
2022/08/19 01:17:14;;;;;;;18.42;11.75;;;;;;;13.25;100.00;101251.63;2055943;28;26979;-69
2022/08/19 01:18:18;;;;;;;17.48;11.45;;;;;;;13.26;100.00;101248.00;2054034;28;26059;-69
2022/08/19 01:19:35;;;;;;;21.55;12.68;;;;;;;13.25;100.00;101247.13;2040334;28;22931;-69
2022/08/19 01:20:47;;;;;;;16.83;11.13;;;;;;;13.25;100.00;101241.75;2055602;28;25637;-69
2022/08/19 01:22:03;;;;;;;14.93;10.88;;;;;;;13.23;100.00;101243.59;2051059;28;20873;-69
2022/08/19 01:23:15;;;;;;;19.40;11.40;;;;;;;13.22;100.00;101225.69;2055731;28;28992;-69
2022/08/19 01:24:16;;;;;;;19.33;11.95;;;;;;;13.22;100.00;101224.81;2051014;28;27391;-69
2022/08/19 01:25:26;;;;;;;21.23;12.65;;;;;;;13.29;100.00;101232.66;2040038;29;30809;-67
2022/08/19 01:26:30;;;;;;;19.45;12.27;;;;;;;13.27;100.00;101234.50;2040632;29;25272;-69
2022/08/19 01:27:44;;;;;;;16.90;11.10;;;;;;;13.25;100.00;101230.97;2047579;28;24666;-69
2022/08/19 01:28:55;;;;;;;14.20;9.65;;;;;;;13.24;100.00;101231.03;2046174;28;20043;-69
2022/08/19 01:29:57;;;;;;;16.00;9.68;;;;;;;13.20;100.00;101230.22;2040594;29;23551;-69
2022/08/19 01:30:59;;;;;;;11.40;8.75;;;;;;;13.18;100.00;101232.09;2040060;29;35789;-69
2022/08/19 01:32:01;;;;;;;15.70;10.25;;;;;;;13.12;100.00;101230.47;2040355;29;26328;-69
2022/08/19 01:33:05;;;;;;;13.70;9.20;;;;;;;13.16;100.00;101233.94;2055589;28;32148;-70
2022/08/19 01:34:07;;;;;;;12.50;9.35;;;;;;;13.14;100.00;101234.00;2054539;28;30689;-69
2022/08/19 01:35:13;;;;;;;14.98;9.48;;;;;;;13.10;100.00;101232.31;2040400;29;20708;-69
2022/08/19 01:36:25;;;;;;;10.73;8.23;;;;;;;13.06;100.00;101224.38;2040390;29;31048;-68
2022/08/19 01:37:27;;;;;;;13.48;8.43;;;;;;;13.02;100.00;101225.41;2040873;29;20055;-70
2022/08/19 01:38:31;;;;;;;14.10;9.07;;;;;;;12.97;100.00;101237.16;2040244;29;37642;-69
2022/08/19 01:39:33;;;;;;;14.27;9.10;;;;;;;12.93;100.00;101230.09;2055048;28;36672;-70
2022/08/19 01:40:39;;;;;;;12.23;8.57;;;;;;;12.90;100.00;101227.50;2055268;28;23797;-68
2022/08/19 01:41:40;;;;;;;10.43;8.00;;;;;;;12.88;100.00;101223.97;2055690;28;23461;-70
2022/08/19 01:42:42;;;;;;;10.55;8.07;;;;;;;12.87;100.00;101229.41;2054381;28;39089;-69
2022/08/19 01:43:45;;;;;;;10.02;7.78;;;;;;;12.84;100.00;101216.91;2040266;29;25386;-69
2022/08/19 01:45:07;;;;;;;11.15;7.82;;;;;;;12.84;100.00;101222.28;2041210;29;20812;-69
2022/08/19 01:46:10;;;;;;;13.55;8.95;;;;;;;12.86;100.00;101223.13;2047518;28;20042;-69
2022/08/19 01:47:12;;;;;;;13.15;8.73;;;;;;;12.87;100.00;101221.34;2047997;28;20143;-69
2022/08/19 01:48:16;;;;;;;15.05;8.57;;;;;;;12.86;100.00;101212.38;2039731;28;29622;-69
2022/08/19 01:49:21;;;;;;;17.35;9.20;;;;;;;12.85;100.00;101207.94;2040538;28;20146;-69
2022/08/19 01:50:24;;;;;;;17.67;9.60;;;;;;;12.83;100.00;101212.50;2039896;28;29379;-69
2022/08/19 01:51:27;;;;;;;12.90;7.63;;;;;;;12.83;100.00;101203.53;2055297;28;27367;-69
2022/08/19 01:52:28;;;;;;;13.35;8.38;;;;;;;12.79;100.00;101210.78;2054367;28;35986;-69
2022/08/19 01:53:33;;;;;;;13.95;8.77;;;;;;;12.76;100.00;101210.91;2040439;29;34213;-69
2022/08/19 01:54:35;;;;;;;17.33;10.27;;;;;;;12.73;100.00;101211.84;2040547;29;20040;-69
2022/08/19 01:55:40;;;;;;;16.83;9.35;;;;;;;12.75;100.00;101212.69;2040690;28;25148;-69
2022/08/19 01:56:42;;;;;;;17.23;9.45;;;;;;;12.77;100.00;101216.19;2040449;29;23436;-69
2022/08/19 01:57:50;;;;;;;16.75;9.50;;;;;;;12.77;100.00;101212.63;2047999;28;20174;-69
2022/08/19 01:58:59;;;;;;;17.27;9.98;;;;;;;12.77;100.00;101209.97;2056630;28;30088;-67
2022/08/19 02:00:09;;;;;;;15.90;10.05;;;;;;;12.75;100.00;101203.75;2054040;28;20915;-68
2022/08/19 02:01:13;;;;;;;15.45;10.05;;;;;;;12.70;100.00;101205.69;2056129;28;20912;-69
2022/08/19 02:02:15;;;;;;;18.40;10.80;;;;;;;12.69;100.00;101212.00;2052906;28;24379;-69
2022/08/19 02:03:17;;;;;;;20.80;11.40;;;;;;;12.66;100.00;101198.63;2040413;29;24011;-68
2022/08/19 02:04:20;;;;;;;17.98;10.60;;;;;;;12.65;100.00;101202.22;2039913;29;33294;-69
2022/08/19 02:05:22;;;;;;;14.38;9.18;;;;;;;12.62;100.00;101196.97;2040389;28;20044;-68
2022/08/19 02:06:24;;;;;;;17.30;10.15;;;;;;;12.57;100.00;101195.25;2039430;29;30559;-69
2022/08/19 02:07:28;;;;;;;17.90;10.32;;;;;;;12.54;100.00;101184.63;2039548;29;37093;-69
2022/08/19 02:08:32;;;;;;;20.15;10.73;;;;;;;12.54;100.00;101184.63;2040344;29;20036;-69
2022/08/19 02:09:34;;;;;;;21.50;11.68;;;;;;;12.55;100.00;101182.81;2039980;29;30823;-69
2022/08/19 02:10:43;;;;;;;24.75;12.70;;;;;;;12.71;100.00;101183.28;2055141;28;27297;-69
2022/08/19 02:11:45;;;;;;;21.83;11.60;;;;;;;12.69;100.00;101186.00;2053175;28;30169;-69
2022/08/19 02:12:47;;;;;;;23.80;12.18;;;;;;;12.69;100.00;101180.63;2039610;29;30968;-69
2022/08/19 02:13:49;;;;;;;27.42;12.20;;;;;;;12.75;100.00;101182.25;2040383;29;20967;-68
2022/08/19 02:14:51;;;;;;;26.65;12.95;;;;;;;12.83;100.00;101174.88;2040040;29;29721;-68
2022/08/19 02:15:53;;;;;;;29.73;13.82;;;;;;;12.88;100.00;101174.72;2040280;29;30647;-69
2022/08/19 02:16:54;;;;;;;34.85;14.02;;;;;;;12.87;100.00;101172.97;2055437;28;24279;-69
2022/08/19 02:17:56;;;;;;;31.48;14.80;;;;;;;12.90;100.00;101176.44;2054976;28;35683;-69
2022/08/19 02:19:00;;;;;;;35.15;14.15;;;;;;;12.88;100.00;101172.91;2040161;28;20918;-69
2022/08/19 02:20:03;;;;;;;32.13;15.20;;;;;;;12.96;100.00;101175.41;2047068;28;30116;-69
2022/08/19 02:21:06;;;;;;;30.75;14.43;;;;;;;12.93;100.00;101173.66;2047539;28;22898;-69
2022/08/19 02:22:07;;;;;;;20.95;11.80;;;;;;;12.94;100.00;101178.13;2039881;29;30372;-69
2022/08/19 02:23:11;;;;;;;29.27;13.82;;;;;;;12.93;100.00;101180.84;2039919;29;31608;-69
2022/08/19 02:24:14;;;;;;;30.05;13.98;;;;;;;12.90;100.00;101181.84;2040165;29;32145;-69
2022/08/19 02:25:18;;;;;;;26.67;12.80;;;;;;;12.91;100.00;101183.56;2039860;28;23088;-69
2022/08/19 02:26:21;;;;;;;24.70;12.57;;;;;;;12.89;100.00;101180.06;2039909;29;27142;-69
2022/08/19 02:27:22;;;;;;;25.20;13.27;;;;;;;12.84;100.00;101184.69;2039854;29;29100;-69
2022/08/19 02:28:24;;;;;;;24.95;13.23;;;;;;;12.83;100.00;101179.34;2040474;29;21283;-69
2022/08/19 02:29:26;;;;;;;22.00;11.82;;;;;;;12.80;100.00;101180.31;2039362;29;30578;-69
2022/08/19 02:30:28;;;;;;;17.10;10.90;;;;;;;12.77;100.00;101180.41;2039951;29;26827;-69
2022/08/19 02:31:30;;;;;;;23.80;12.35;;;;;;;12.78;100.00;101174.97;2039085;29;36512;-70
2022/08/19 02:32:32;;;;;;;20.48;12.07;;;;;;;12.72;100.00;101182.31;2039753;29;27728;-70
2022/08/19 02:33:33;;;;;;;15.43;9.40;;;;;;;12.72;100.00;101185.00;2039931;29;28057;-70
2022/08/19 02:34:35;;;;;;;22.25;12.57;;;;;;;12.66;100.00;101182.50;2039905;29;33307;-70
2022/08/19 02:35:41;;;;;;;19.67;11.27;;;;;;;12.67;100.00;101189.63;2039624;29;30163;-69
2022/08/19 02:36:43;;;;;;;21.55;12.20;;;;;;;12.65;100.00;101186.09;2055403;28;29534;-69
2022/08/19 02:39:06;;;;;;;18.85;10.38;;;;;;;12.61;100.00;101185.31;2039882;29;25759;-69
2022/08/19 02:40:08;;;;;;;15.57;9.77;;;;;;;12.58;100.00;101182.72;2039367;29;37139;-70
2022/08/19 02:41:21;;;;;;;16.20;9.35;;;;;;;12.52;100.00;101183.75;2039601;29;40269;-68
2022/08/19 02:42:23;;;;;;;14.57;9.55;;;;;;;12.48;100.00;101183.91;2054905;28;28698;-69
2022/08/19 02:43:28;;;;;;;22.70;12.30;;;;;;;12.52;100.00;101183.75;2054642;28;20047;-70
2022/08/19 02:44:32;;;;;;;19.02;11.25;;;;;;;12.55;100.00;101186.38;2046438;28;30742;-69
2022/08/19 02:45:41;;;;;;;20.10;11.07;;;;;;;12.57;100.00;101183.66;2040103;29;29510;-69
2022/08/19 02:46:46;;;;;;;21.55;11.57;;;;;;;12.56;100.00;101193.50;2055155;28;29303;-69
2022/08/19 02:47:48;;;;;;;19.73;11.43;;;;;;;12.54;100.00;101187.31;2052819;28;32386;-69
2022/08/19 02:48:57;;;;;;;18.35;10.90;;;;;;;12.51;100.00;101192.75;2039532;29;30620;-70
2022/08/19 02:50:02;;;;;;;20.80;10.80;;;;;;;12.48;100.00;101192.81;2054903;28;36533;-69
2022/08/19 02:51:05;;;;;;;18.27;10.15;;;;;;;12.55;100.00;101185.50;2053961;28;24530;-69
2022/08/19 02:52:07;;;;;;;21.90;11.85;;;;;;;12.53;100.00;101198.97;2046261;28;37013;-69
2022/08/19 02:53:10;;;;;;;17.02;10.05;;;;;;;12.52;100.00;101194.50;2039516;28;27049;-70
2022/08/19 02:54:13;;;;;;;19.90;11.30;;;;;;;12.49;100.00;101201.75;2055113;28;31320;-70
2022/08/19 02:55:15;;;;;;;18.75;9.77;;;;;;;12.50;100.00;101192.78;2054511;28;37043;-70
2022/08/19 02:56:20;;;;;;;20.67;11.20;;;;;;;12.53;100.00;101193.59;2047361;28;20079;-69
2022/08/19 02:57:22;;;;;;;19.98;10.55;;;;;;;12.52;100.00;101191.81;2039901;28;24949;-69
2022/08/19 02:58:24;;;;;;;22.40;11.18;;;;;;;12.51;100.00;101190.06;2039816;29;30331;-70
2022/08/19 02:59:29;;;;;;;23.13;11.98;;;;;;;12.55;100.00;101194.44;2054419;28;35887;-70
2022/08/19 03:00:32;;;;;;;27.25;12.55;;;;;;;12.59;100.00;101197.91;2053808;28;32950;-70
2022/08/19 03:01:34;;;;;;;21.88;11.40;;;;;;;12.53;100.00;101188.22;2040159;28;23742;-68
2022/08/19 03:02:36;;;;;;;22.30;11.50;;;;;;;12.50;100.00;101193.66;2039654;29;31665;-70
2022/08/19 03:03:38;;;;;;;21.65;10.82;;;;;;;12.50;100.00;101182.06;2039999;29;23548;-69
2022/08/19 03:04:41;;;;;;;17.17;9.65;;;;;;;12.50;100.00;101188.28;2039865;29;24054;-70
2022/08/19 03:05:43;;;;;;;23.48;12.10;;;;;;;12.57;100.00;101183.66;2039448;29;31599;-70
2022/08/19 03:06:49;;;;;;;16.70;9.82;;;;;;;12.50;100.00;101182.91;2040676;29;20997;-70
2022/08/19 03:07:50;;;;;;;23.63;11.25;;;;;;;12.49;100.00;101170.44;2039747;29;22536;-70
2022/08/19 03:08:56;;;;;;;35.65;11.13;;;;;;;12.51;100.00;101182.00;2039611;29;20040;-70
2022/08/19 03:09:58;;;;;;;19.77;9.93;;;;;;;12.50;100.00;101180.22;2040078;29;28783;-69
2022/08/19 03:11:00;;;;;;;19.70;9.82;;;;;;;12.51;100.00;101182.00;2039402;28;29801;-70
2022/08/19 03:12:03;;;;;;;21.55;9.75;;;;;;;12.50;100.00;101177.56;2039655;29;29360;-70
2022/08/19 03:13:05;;;;;;;23.33;9.95;;;;;;;12.50;100.00;101184.72;2054743;28;30034;-70
2022/08/19 03:14:09;;;;;;;22.38;10.00;;;;;;;12.49;100.00;101182.97;2054289;28;29650;-70
2022/08/19 03:15:11;;;;;;;29.48;12.18;;;;;;;12.52;100.00;101194.50;2046808;28;24044;-70
2022/08/19 03:16:12;;;;;;;18.67;10.10;;;;;;;12.50;100.00;101190.97;2046800;28;38248;-70
2022/08/19 03:17:14;;;;;;;22.90;10.30;;;;;;;12.49;100.00;101196.38;2040073;29;20044;-70
2022/08/19 03:18:16;;;;;;;22.80;10.57;;;;;;;12.48;100.00;101192.81;2040076;29;26088;-69
2022/08/19 03:19:21;;;;;;;20.15;10.25;;;;;;;12.48;100.00;101194.63;2054035;28;30292;-70
2022/08/19 03:20:22;;;;;;;29.83;11.50;;;;;;;12.49;100.00;101194.59;2053725;28;31362;-70
2022/08/19 03:21:30;;;;;;;30.10;12.27;;;;;;;12.49;100.00;101199.06;2039203;29;31213;-70
2022/08/19 03:22:32;;;;;;;29.02;12.18;;;;;;;12.51;100.00;101197.25;2040022;29;25806;-70
2022/08/19 03:23:35;;;;;;;21.88;10.27;;;;;;;12.47;100.00;101198.22;2039512;28;31922;-70
2022/08/19 03:24:37;;;;;;;23.38;11.30;;;;;;;12.49;100.00;101197.28;2055097;28;31396;-70
2022/08/19 03:25:43;;;;;;;22.95;11.63;;;;;;;12.47;100.00;101191.09;2054124;28;22654;-70
2022/08/19 03:26:51;;;;;;;22.80;10.15;;;;;;;12.45;100.00;101198.28;2040169;29;24194;-70
2022/08/19 03:27:52;;;;;;;21.75;11.10;;;;;;;12.42;100.00;101201.06;2055101;28;26125;-70
2022/08/19 03:28:54;;;;;;;21.60;10.27;;;;;;;12.44;100.00;101198.34;2054108;28;27199;-70
2022/08/19 03:29:59;;;;;;;23.75;10.98;;;;;;;12.44;100.00;101201.03;2039299;28;31274;-70
2022/08/19 03:31:08;;;;;;;30.00;11.00;;;;;;;12.44;100.00;101193.84;2039609;29;31600;-70
2022/08/19 03:32:30;;;;;;;21.80;9.55;;;;;;;12.41;100.00;101199.28;2039945;28;20036;-70
2022/08/19 03:33:34;;;;;;;19.50;9.57;;;;;;;12.40;100.00;101192.16;2039824;28;27296;-70
2022/08/19 03:34:38;;;;;;;21.88;10.05;;;;;;;12.38;100.00;101193.97;2054612;28;27252;-70
2022/08/19 03:35:39;;;;;;;33.03;11.48;;;;;;;12.39;100.00;101193.06;2053916;28;20286;-70
2022/08/19 03:36:41;;;;;;;24.05;11.48;;;;;;;12.36;100.00;101188.69;2038771;29;34691;-70
2022/08/19 03:37:46;;;;;;;20.67;10.45;;;;;;;12.37;100.00;101185.06;2055029;28;27655;-70
2022/08/19 03:38:54;;;;;;;23.27;11.63;;;;;;;12.36;100.00;101187.78;2054000;28;25190;-70
2022/08/19 03:39:56;;;;;;;17.08;9.73;;;;;;;12.35;100.00;101189.59;2045656;28;29215;-70
2022/08/19 03:41:07;;;;;;;24.70;11.35;;;;;;;12.33;100.00;101194.13;2039601;28;31916;-70
2022/08/19 03:42:12;;;;;;;19.77;9.98;;;;;;;12.31;100.00;101192.38;2046790;28;22534;-68
2022/08/19 03:43:39;;;;;;;22.33;10.68;;;;;;;12.32;100.00;101200.41;2044673;28;20888;-70
2022/08/19 03:44:42;;;;;;;20.75;11.23;;;;;;;12.32;100.00;101199.53;2054424;28;27806;-70
2022/08/19 03:45:43;;;;;;;17.55;8.55;;;;;;;12.31;100.00;101193.28;2054403;28;20119;-70
2022/08/19 03:46:56;;;;;;;19.73;9.20;;;;;;;12.33;100.00;101199.50;2054198;28;37353;-70
2022/08/19 03:47:57;;;;;;;19.38;9.13;;;;;;;12.30;100.00;101196.00;2052271;28;30205;-70
2022/08/19 03:49:08;;;;;;;19.05;9.90;;;;;;;12.29;100.00;101194.22;2039400;28;27875;-70
2022/08/19 03:50:10;;;;;;;21.95;10.98;;;;;;;12.28;100.00;101187.13;2054648;28;34688;-71
2022/08/19 03:51:26;;;;;;;19.67;9.95;;;;;;;12.30;100.00;101191.50;2052217;28;23274;-70
2022/08/19 03:52:31;;;;;;;20.08;9.63;;;;;;;12.31;100.00;101187.00;2039570;28;33938;-70
2022/08/19 03:53:34;;;;;;;21.25;10.35;;;;;;;12.32;100.00;101189.66;2040088;28;20129;-70
2022/08/19 03:54:38;;;;;;;25.30;11.20;;;;;;;12.35;100.00;101188.72;2039696;29;22679;-70
2022/08/19 03:55:42;;;;;;;19.05;10.05;;;;;;;12.37;100.00;101184.19;2039170;29;34123;-70
2022/08/19 03:56:46;;;;;;;20.08;9.85;;;;;;;12.37;100.00;101184.19;2039539;29;28729;-71
2022/08/19 03:57:48;;;;;;;19.88;8.80;;;;;;;12.37;100.00;101181.50;2039885;28;20036;-70
2022/08/19 03:58:51;;;;;;;21.27;10.38;;;;;;;12.35;100.00;101191.41;2039291;29;30478;-70
2022/08/19 03:59:53;;;;;;;17.67;8.85;;;;;;;12.35;100.00;101183.34;2039931;28;20048;-70
2022/08/19 04:00:56;;;;;;;16.65;9.48;;;;;;;12.34;100.00;101184.25;2039592;29;25630;-71
2022/08/19 04:02:01;;;;;;;23.27;11.18;;;;;;;12.34;100.00;101185.13;2039500;29;29641;-71
2022/08/19 04:03:03;;;;;;;19.42;9.38;;;;;;;12.36;100.00;101191.38;2039322;29;27993;-71
2022/08/19 04:04:05;;;;;;;20.33;11.07;;;;;;;12.35;100.00;101191.41;2039449;28;31067;-70
2022/08/19 04:05:08;;;;;;;16.40;8.98;;;;;;;12.34;100.00;101195.00;2039971;29;20168;-71
2022/08/19 04:06:21;;;;;;;21.33;10.75;;;;;;;12.34;100.00;101193.19;2038849;29;32500;-71
2022/08/19 04:07:22;;;;;;;20.08;10.00;;;;;;;12.35;100.00;101194.09;2054713;28;29866;-71
2022/08/19 04:08:24;;;;;;;21.33;10.93;;;;;;;12.36;100.00;101190.47;2052745;28;23293;-71
2022/08/19 04:09:26;;;;;;;21.13;10.85;;;;;;;12.34;100.00;101192.31;2038697;28;32684;-71
2022/08/19 04:10:28;;;;;;;16.35;8.85;;;;;;;12.32;100.00;101194.16;2040064;29;20168;-70
2022/08/19 04:11:46;;;;;;;23.75;11.32;;;;;;;12.34;100.00;101195.00;2039530;28;20143;-70
2022/08/19 04:12:50;;;;;;;20.55;10.85;;;;;;;12.35;100.00;101184.22;2039965;29;25917;-71
2022/08/19 04:13:53;;;;;;;17.15;9.57;;;;;;;12.37;100.00;101189.56;2038713;29;23591;-71
2022/08/19 04:14:58;;;;;;;23.98;11.73;;;;;;;12.43;100.00;101188.50;2039381;29;31915;-71
2022/08/19 04:16:00;;;;;;;19.13;9.90;;;;;;;12.42;100.00;101195.69;2039821;29;20037;-70
2022/08/19 04:17:04;;;;;;;22.27;10.63;;;;;;;12.46;100.00;101192.00;2038872;29;40664;-70
2022/08/19 04:18:07;;;;;;;20.70;10.15;;;;;;;12.42;100.00;101193.00;2039029;29;30059;-71
2022/08/19 04:19:09;;;;;;;18.60;9.98;;;;;;;12.40;100.00;101197.53;2039657;28;23067;-70
2022/08/19 04:20:11;;;;;;;23.73;11.88;;;;;;;12.42;100.00;101190.31;2039086;29;30207;-70
2022/08/19 04:21:21;;;;;;;21.98;11.27;;;;;;;12.41;100.00;101191.22;2037832;28;26041;-71
2022/08/19 04:22:23;;;;;;;21.13;10.40;;;;;;;12.41;100.00;101196.59;2062631;28;31587;-71
2022/08/19 04:23:27;;;;;;;30.00;11.98;;;;;;;12.40;100.00;101192.16;2061885;28;20043;-70
2022/08/19 04:24:29;;;;;;;22.05;11.13;;;;;;;12.39;100.00;101196.63;2046574;28;31088;-70
2022/08/19 04:25:37;;;;;;;29.33;11.93;;;;;;;12.38;100.00;101189.53;2046303;28;31326;-71
2022/08/19 04:26:41;;;;;;;19.80;10.15;;;;;;;12.38;100.00;101204.72;2046915;28;25948;-71
2022/08/19 04:27:46;;;;;;;21.92;11.02;;;;;;;12.37;100.00;101198.47;2047372;28;24223;-71
2022/08/19 04:28:48;;;;;;;26.83;12.20;;;;;;;12.38;100.00;101204.72;2047510;28;20118;-70
2022/08/19 04:29:50;;;;;;;21.63;10.40;;;;;;;12.39;100.00;101204.69;2063261;28;21236;-71
2022/08/19 04:30:56;;;;;;;23.63;11.50;;;;;;;12.40;100.00;101208.28;2063057;28;32940;-71
2022/08/19 04:31:59;;;;;;;30.08;12.43;;;;;;;12.40;100.00;101208.28;2048650;28;35976;-71
2022/08/19 04:33:10;;;;;;;;;;;;;;;12.42;100.00;101206.44;2064929;28;22500;-70
2022/08/19 04:34:15;;;;;;;26.33;11.93;;;;;;;12.46;100.00;101210.78;2061068;28;27830;-71
2022/08/19 04:35:16;;;;;;;22.98;10.57;;;;;;;12.46;100.00;101209.91;2049011;28;20039;-71
2022/08/19 04:36:28;;;;;;;25.73;10.73;;;;;;;12.48;100.00;101213.44;2047731;28;39151;-70
2022/08/19 04:37:32;;;;;;;23.27;11.00;;;;;;;12.47;100.00;101208.97;2049432;28;36543;-70
2022/08/19 04:38:36;;;;;;;22.05;10.25;;;;;;;12.47;100.00;101204.50;2049070;28;20605;-70
2022/08/19 04:43:39;;;;;;;24.45;9.55;;;;;;;12.54;100.00;101211.47;2054736;28;20426;-71
2022/08/19 04:44:42;;;;;;;26.40;11.05;;;;;;;12.55;100.00;101210.53;2048583;28;25407;-71
2022/08/19 04:45:47;;;;;;;29.33;12.05;;;;;;;12.55;100.00;101212.34;2063456;28;42118;-71
2022/08/19 04:46:50;;;;;;;29.67;11.73;;;;;;;12.59;100.00;101208.66;2063549;28;23646;-71
2022/08/19 04:47:59;;;;;;;27.63;10.52;;;;;;;12.62;100.00;101205.03;2048594;28;27084;-71
2022/08/19 04:49:23;;;;;;;24.90;10.60;;;;;;;12.69;100.00;101209.31;2063890;28;28344;-70
2022/08/19 04:50:26;;;;;;;26.73;11.85;;;;;;;12.73;100.00;101206.47;2056993;28;25747;-71
2022/08/19 04:51:30;;;;;;;23.20;10.40;;;;;;;12.78;100.00;101209.03;2044752;28;35742;-70
2022/08/19 04:52:32;;;;;;;22.08;10.38;;;;;;;12.82;100.00;101202.66;2042808;28;20877;-71
2022/08/19 04:53:37;;;;;;;22.27;10.38;;;;;;;12.87;100.00;101203.41;2040441;29;32011;-69
2022/08/19 04:54:39;;;;;;;25.02;10.68;;;;;;;12.93;100.00;101207.72;2055486;28;38222;-71
2022/08/19 04:55:44;;;;;;;26.10;11.23;;;;;;;13.03;100.00;101205.63;2055239;28;23512;-69